Time;durP1;ratioP1;P1;durP2;ratioP2;P2;SDS_P1;SDS_P2;PMS_P1;PMS_P2;Temp;Humidity;BMP_temperature;BMP_pressure;BME280_temperature;BME280_humidity;BME280_pressure;Samples;Min_cycle;Max_cycle;Signal;HPM_P1;HPM_P2
2022/08/31 00:04:14;;;;;;;;;;;;;;;15.42;100.00;100225.97;5074641;28;19986;-77
2022/08/31 00:06:41;;;;;;;;;;;;;;;15.63;100.00;100213.53;5056856;28;19928;-77
2022/08/31 00:09:08;;;;;;;;;;;;;;;15.70;100.00;100219.03;5056601;28;19930;-77
2022/08/31 00:11:35;;;;;;;;;;;;;;;15.44;100.00;100215.06;5074131;28;19924;-77
2022/08/31 00:14:04;;;;;;;;;;;;;;;15.21;100.00;100215.03;5074395;28;19931;-77
2022/08/31 00:16:32;;;;;;;;;;;;;;;15.28;100.00;100209.25;5081975;28;20322;-77
2022/08/31 00:19:00;;;;;;;;;;;;;;;15.02;100.00;100212.13;5075394;28;19946;-77
2022/08/31 00:21:28;;;;;;;;;;;;;;;15.25;100.00;100210.13;5094565;28;19924;-77
2022/08/31 00:23:56;;;;;;;;;;;;;;;15.24;100.00;100214.16;5060030;28;19947;-77
2022/08/31 00:26:24;;;;;;;;;;;;;;;15.13;100.00;100213.53;5076126;28;19969;-77
2022/08/31 00:28:51;;;;;;;;;;;;;;;15.33;100.00;100217.22;5094399;28;19931;-77
2022/08/31 00:31:18;;;;;;;;;;;;;;;14.89;100.00;100220.34;5076312;28;20026;-78
2022/08/31 00:33:51;;;;;;;;;;;;;;;14.65;100.00;100220.72;5094270;28;19924;-77
2022/08/31 00:36:22;;;;;;;;;;;;;;;14.89;100.00;100225.22;5076234;28;19924;-77
2022/08/31 00:38:50;;;;;;;;;;;;;;;15.20;100.00;100219.06;5059667;28;19947;-77
2022/08/31 00:41:20;;;;;;;;;;;;;;;14.96;100.00;100223.09;5075845;28;20335;-77
2022/08/31 00:44:13;;;;;;;;;;;;;;;15.07;100.00;100226.50;5094175;28;19925;-77
2022/08/31 00:46:41;;;;;;;;;;;;;;;14.82;100.00;100233.75;5072290;28;19930;-77
2022/08/31 00:49:08;;;;;;;;;;;;;;;15.22;100.00;100225.06;5076306;28;20398;-78
2022/08/31 00:51:48;;;;;;;;;;;;;;;15.48;100.00;100223.47;5059581;28;19924;-77
2022/08/31 00:54:18;;;;;;;;;;;;;;;15.27;100.00;100230.22;5076045;28;19924;-77
2022/08/31 00:56:45;;;;;;;;;;;;;;;15.13;100.00;100213.53;5058671;28;20027;-77
2022/08/31 00:59:14;;;;;;;;;;;;;;;15.04;100.00;100210.47;5076016;28;20018;-78
2022/08/31 01:01:42;;;;;;;;;;;;;;;14.96;100.00;100225.91;5059226;28;19924;-77
2022/08/31 01:04:09;;;;;;;;;;;;;;;14.77;100.00;100226.56;5059414;28;19928;-77
2022/08/31 01:06:37;;;;;;;;;;;;;;;15.20;100.00;100219.06;5075989;28;19950;-77
2022/08/31 01:09:05;;;;;;;;;;;;;;;14.98;100.00;100226.25;5093560;28;19924;-77
2022/08/31 01:11:32;;;;;;;;;;;;;;;15.29;100.00;100219.31;5075880;28;20359;-77
2022/08/31 01:14:00;;;;;;;;;;;;;;;15.27;100.00;100218.94;5075920;28;20401;-77
2022/08/31 01:16:31;;;;;;;;;;;;;;;15.28;100.00;100216.94;5059185;28;20302;-77
2022/08/31 01:19:01;;;;;;;;;;;;;;;15.23;100.00;100217.41;5075663;28;19932;-77
2022/08/31 01:21:34;;;;;;;;;;;;;;;15.56;100.00;100217.28;5075638;28;19978;-77
2022/08/31 01:24:02;;;;;;;;;;;;;;;14.90;100.00;100227.59;5075507;28;19924;-77
2022/08/31 01:26:31;;;;;;;;;;;;;;;15.21;100.00;100223.47;5059507;28;19970;-77
2022/08/31 01:29:01;;;;;;;;;;;;;;;15.41;100.00;100224.38;5059196;28;19928;-77
2022/08/31 01:31:37;;;;;;;;;;;;;;;15.08;100.00;100216.84;5079806;28;19978;-77
2022/08/31 01:34:05;;;;;;;;;;;;;;;15.08;100.00;100213.25;5079646;28;20420;-77
2022/08/31 01:36:33;;;;;;;;;;;;;;;15.49;100.00;100225.84;5079545;28;19928;-77
2022/08/31 01:39:01;;;;;;;;;;;;;;;14.87;100.00;100222.81;5079440;28;19924;-77
2022/08/31 01:41:28;;;;;;;;;;;;;;;14.90;100.00;100221.97;5097594;28;20274;-77
2022/08/31 01:43:55;;;;;;;;;;;;;;;15.14;100.00;100220.78;5079458;28;19935;-77
2022/08/31 01:46:23;;;;;;;;;;;;;;;14.99;100.00;100225.03;5079580;28;20282;-77
2022/08/31 01:48:51;;;;;;;;;;;;;;;15.31;100.00;100227.34;5062884;28;19924;-77
2022/08/31 01:51:19;;;;;;;;;;;;;;;15.45;100.00;100221.50;5062700;28;19928;-77
2022/08/31 01:53:47;;;;;;;;;;;;;;;15.67;100.00;100226.34;5079164;28;19932;-77
2022/08/31 01:56:20;;;;;;;;;;;;;;;15.08;100.00;100228.13;5079181;28;19977;-77
2022/08/31 01:58:47;;;;;;;;;;;;;;;14.95;100.00;100218.66;5079324;28;19924;-77
2022/08/31 02:01:34;;;;;;;;;;;;;;;15.49;100.00;100225.06;5062539;28;19931;-77
2022/08/31 02:04:03;;;;;;;;;;;;;;;15.52;100.00;100230.63;5062772;28;19962;-77
2022/08/31 02:06:30;;;;;;;;;;;;;;;15.66;100.00;100226.75;5079078;28;20366;-77
2022/08/31 02:08:58;;;;;;;;;;;;;;;16.00;100.00;100230.13;5096928;28;19931;-77
2022/08/31 02:11:25;;;;;;;;;;;;;;;15.67;100.00;100231.97;5079198;28;19924;-77
2022/08/31 02:13:52;;;;;;;;;;;;;;;15.38;100.00;100228.03;5079330;28;19924;-77
2022/08/31 02:16:20;;;;;;;;;;;;;;;15.71;100.00;100229.88;5078916;28;19928;-77
2022/08/31 02:18:47;;;;;;;;;;;;;;;15.73;100.00;100233.06;5078879;28;19924;-77
2022/08/31 02:21:14;;;;;;;;;;;;;;;15.76;100.00;100225.75;5061828;28;19931;-77
2022/08/31 02:23:41;;;;;;;;;;;;;;;15.66;100.00;100224.72;5078977;28;19927;-77
2022/08/31 02:26:08;;;;;;;;;;;;;;;15.72;100.00;100217.34;5078764;28;20329;-77
2022/08/31 02:28:36;;;;;;;;;;;;;;;15.70;100.00;100219.84;5062461;28;19924;-77
2022/08/31 02:31:03;;;;;;;;;;;;;;;15.96;100.00;100216.09;5062011;28;19931;-77
2022/08/31 02:33:38;;;;;;;;;;;;;;;15.73;100.00;100218.97;5062220;28;19927;-77
2022/08/31 02:36:06;;;;;;;;;;;;;;;15.35;100.00;100211.97;5078397;28;19948;-77
2022/08/31 02:38:34;;;;;;;;;;;;;;;15.66;100.00;100219.09;5061999;28;20432;-77
2022/08/31 02:41:02;;;;;;;;;;;;;;;15.60;100.00;100218.00;5077960;28;20000;-77
2022/08/31 02:43:29;;;;;;;;;;;;;;;15.67;100.00;100214.25;5078584;28;19935;-77
2022/08/31 02:45:56;;;;;;;;;;;;;;;15.41;100.00;100213.13;5078517;28;19924;-77
2022/08/31 02:48:28;;;;;;;;;;;;;;;15.15;100.00;100216.72;5078511;28;20362;-77
2022/08/31 02:51:02;;;;;;;;;;;;;;;15.01;100.00;100210.53;5061480;28;20367;-77
2022/08/31 02:53:29;;;;;;;;;;;;;;;15.21;100.00;100219.84;5078465;28;19924;-77
2022/08/31 02:55:56;;;;;;;;;;;;;;;15.43;100.00;100221.94;5078459;28;19924;-77
2022/08/31 02:58:23;;;;;;;;;;;;;;;15.74;100.00;100217.72;5061561;28;19924;-77
2022/08/31 03:00:51;;;;;;;;;;;;;;;15.78;100.00;100215.63;5078151;28;19928;-77
2022/08/31 03:03:18;;;;;;;;;;;;;;;15.90;100.00;100212.19;5045191;28;19924;-77
2022/08/31 03:05:45;;;;;;;;;;;;;;;15.98;100.00;100216.47;5077880;28;19977;-77
2022/08/31 03:08:13;;;;;;;;;;;;;;;15.99;100.00;100209.59;5078376;28;19924;-77
2022/08/31 03:10:41;;;;;;;;;;;;;;;15.99;100.00;100209.59;5061290;28;20456;-77
2022/08/31 03:13:08;;;;;;;;;;;;;;;15.78;100.00;100210.00;5096174;28;20018;-77
2022/08/31 03:15:35;;;;;;;;;;;;;;;15.87;100.00;100207.41;5077881;28;19928;-77
2022/08/31 03:18:05;;;;;;;;;;;;;;;15.99;100.00;100201.13;5077835;28;19963;-77
2022/08/31 03:20:32;;;;;;;;;;;;;;;16.07;100.00;100199.78;5061077;28;19950;-77
2022/08/31 03:23:01;;;;;;;;;;;;;;;16.07;100.00;100202.59;5061763;28;19928;-77
2022/08/31 03:25:28;;;;;;;;;;;;;;;16.19;100.00;100201.16;5061276;28;19924;-77
2022/08/31 03:27:55;;;;;;;;;;;;;;;16.14;100.00;100194.00;5077858;28;19928;-77
2022/08/31 03:30:23;;;;;;;;;;;;;;;16.20;100.00;100203.53;5061166;28;19947;-77
2022/08/31 03:32:59;;;;;;;;;;;;;;;16.02;100.00;100203.09;5077696;28;20012;-77
2022/08/31 03:35:26;;;;;;;;;;;;;;;16.05;100.00;100207.09;5077376;28;19931;-77
2022/08/31 03:37:53;;;;;;;;;;;;;;;16.07;100.00;100208.22;5077597;28;20015;-77
2022/08/31 03:40:21;;;;;;;;;;;;;;;16.15;100.00;100206.06;5060499;28;19932;-77
2022/08/31 03:42:49;;;;;;;;;;;;;;;16.20;100.00;100208.38;5077439;28;19924;-77
2022/08/31 03:45:17;;;;;;;;;;;;;;;16.19;100.00;100213.22;5077548;28;19924;-77
2022/08/31 03:47:44;;;;;;;;;;;;;;;16.22;100.00;100206.72;5077429;28;19924;-77
2022/08/31 03:50:14;;;;;;;;;;;;;;;16.20;100.00;100203.53;5076964;28;19977;-78
2022/08/31 03:52:54;;;;;;;;;;;;;;;16.24;100.00;100204.25;5059754;28;20013;-77
2022/08/31 03:55:22;;;;;;;;;;;;;;;16.16;100.00;100208.44;5060574;28;20010;-77
2022/08/31 03:57:50;;;;;;;;;;;;;;;16.12;100.00;100202.09;5077122;28;19962;-77
2022/08/31 04:00:17;;;;;;;;;;;;;;;15.86;100.00;100205.03;5077154;28;19931;-77
2022/08/31 04:02:52;;;;;;;;;;;;;;;16.10;100.00;100204.53;5076798;28;19935;-77
2022/08/31 04:05:32;;;;;;;;;;;;;;;16.21;100.00;100202.31;5094981;28;19934;-77
2022/08/31 04:08:35;;;;;;;;;;;;;;;16.28;100.00;100198.56;5052229;28;19924;-77
2022/08/31 04:11:22;;;;;;;;;;;;;;;16.15;100.00;100195.59;5038444;28;19974;-77
2022/08/31 04:14:24;;;;;;;;;;;;;;;16.02;100.00;100203.09;5052329;28;19947;-77
2022/08/31 04:17:11;;;;;;;;;;;;;;;16.07;100.00;100191.31;5052166;28;20027;-77
2022/08/31 04:19:43;;;;;;;;;;;;;;;15.81;100.00;100197.88;5052162;28;19925;-77
2022/08/31 04:22:24;;;;;;;;;;;;;;;15.67;100.00;100192.53;5035552;28;19925;-77
2022/08/31 04:25:11;;;;;;;;;;;;;;;15.90;100.00;100195.28;5035402;28;20415;-77
2022/08/31 04:27:39;;;;;;;;;;;;;;;16.01;100.00;100195.88;5019265;28;19931;-77
2022/08/31 04:30:06;;;;;;;;;;;;;;;16.12;100.00;100193.63;5052018;28;20376;-78
2022/08/31 04:32:34;;;;;;;;;;;;;;;15.98;100.00;100195.94;5051723;28;20330;-77
2022/08/31 04:35:02;;;;;;;;;;;;;;;15.51;100.00;100202.88;5035252;28;19932;-77
2022/08/31 04:37:31;;;;;;;;;;;;;;;15.83;100.00;100205.88;5051875;28;19986;-77
2022/08/31 04:40:00;;;;;;;;;;;;;;;15.70;100.00;100204.94;5035122;28;19925;-77
2022/08/31 04:42:29;;;;;;;;;;;;;;;15.65;100.00;100209.06;5053083;28;20413;-77
2022/08/31 04:44:56;;;;;;;;;;;;;;;15.87;100.00;100210.22;5076300;28;19924;-77
2022/08/31 04:47:23;;;;;;;;;;;;;;;15.69;100.00;100218.22;5042547;28;19932;-77
2022/08/31 04:49:50;;;;;;;;;;;;;;;15.84;100.00;100213.91;5059777;28;19924;-77
2022/08/31 04:52:17;;;;;;;;;;;;;;;15.40;100.00;100211.53;5059383;28;20359;-77
2022/08/31 04:54:44;;;;;;;;;;;;;;;15.65;100.00;100211.88;5076226;28;19947;-77
2022/08/31 04:57:12;;;;;;;;;;;;;;;15.79;100.00;100214.44;5059760;28;19924;-77
2022/08/31 04:59:39;;;;;;;;;;;;;;;15.83;100.00;100208.72;5076087;28;19924;-77
2022/08/31 05:02:32;;;;;;;;;;;;;;;15.91;100.00;100213.78;5075771;28;20023;-77
2022/08/31 05:05:08;;;;;;;;;;;;;;;15.99;100.00;100217.28;5075993;28;20302;-77
2022/08/31 05:07:36;;;;;;;;;;;;;;;15.96;100.00;100221.72;5059287;28;19924;-77
2022/08/31 05:10:04;;;;;;;;;;;;;;;15.39;100.00;100215.56;5074385;28;20398;-77
2022/08/31 05:12:31;;;;;;;;;;;;;;;15.38;100.00;100224.44;5075914;28;19935;-77
2022/08/31 05:14:58;;;;;;;;;;;;;;;15.55;100.00;100224.13;5075862;28;19925;-77
2022/08/31 05:17:27;;;;;;;;;;;;;;;15.69;100.00;100232.31;5075605;28;19954;-77
2022/08/31 05:19:54;;;;;;;;;;;;;;;15.45;100.00;100224.31;5075691;28;19946;-77
2022/08/31 05:22:22;;;;;;;;;;;;;;;15.57;100.00;100226.53;5058988;28;19934;-77
2022/08/31 05:24:51;;;;;;;;;;;;;;;15.41;100.00;100232.81;5075941;28;20280;-77
2022/08/31 05:27:18;;;;;;;;;;;;;;;15.67;100.00;100226.34;5075824;28;19928;-77
2022/08/31 05:29:45;;;;;;;;;;;;;;;15.44;100.00;100223.53;5075469;28;20029;-77
2022/08/31 05:32:30;;;;;;;;;;;;;;;15.68;100.00;100233.53;5093785;28;19925;-78
2022/08/31 05:34:59;;;;;;;;;;;;;;;15.79;100.00;100236.16;5058840;28;19931;-77
2022/08/31 05:37:26;;;;;;;;;;;;;;;15.79;100.00;100233.34;5075661;28;20015;-77
2022/08/31 05:39:53;;;;;;;;;;;;;;;15.66;100.00;100238.03;5075585;28;19944;-77
2022/08/31 05:42:21;;;;;;;;;;;;;;;15.51;100.00;100240.28;5059133;28;19924;-77
2022/08/31 05:44:49;;;;;;;;;;;;;;;15.50;100.00;100240.72;5058567;28;19931;-77
2022/08/31 05:47:16;;;;;;;;;;;;;;;15.46;100.00;100243.63;5058886;28;19973;-77
2022/08/31 05:49:43;;;;;;;;;;;;;;;15.30;100.00;100246.25;5076020;28;19931;-78
2022/08/31 05:52:15;;;;;;;;;;;;;;;15.38;100.00;100242.13;5059739;28;19931;-80
2022/08/31 05:54:42;;;;;;;;;;;;;;;15.38;100.00;100241.31;5059079;28;19935;-79
2022/08/31 05:57:10;;;;;;;;;;;;;;;15.39;100.00;100246.53;5076085;28;19924;-79
2022/08/31 05:59:37;;;;;;;;;;;;;;;15.51;100.00;100251.56;5075492;28;19930;-79
2022/08/31 06:02:07;;;;;;;;;;;;;;;15.37;100.00;100251.78;5042212;28;19966;-79
2022/08/31 06:04:35;;;;;;;;;;;;;;;15.36;100.00;100238.91;5058431;28;20015;-79
2022/08/31 06:07:02;;;;;;;;;;;;;;;15.65;100.00;100259.75;5075837;28;20027;-79
2022/08/31 06:09:38;;;;;;;;;;;;;;;15.58;100.00;100257.09;5075555;28;19930;-79
2022/08/31 06:12:05;;;;;;;;;;;;;;;15.68;100.00;100260.91;5075563;28;19967;-79
2022/08/31 06:14:33;;;;;;;;;;;;;;;15.79;100.00;100250.25;5075506;28;20378;-79
2022/08/31 06:17:00;;;;;;;;;;;;;;;15.65;100.00;100251.31;5061908;28;19924;-79
2022/08/31 06:19:27;;;;;;;;;;;;;;;15.70;100.00;100248.00;5029267;28;19928;-79
2022/08/31 06:21:56;;;;;;;;;;;;;;;15.85;100.00;100248.53;5062824;28;19932;-79
2022/08/31 06:24:26;;;;;;;;;;;;;;;15.95;100.00;100259.59;5062270;28;19977;-79
2022/08/31 06:26:58;;;;;;;;;;;;;;;16.03;100.00;100255.44;5062410;28;19924;-79
2022/08/31 06:29:30;;;;;;;;;;;;;;;15.77;100.00;100258.34;5061885;28;19924;-79
2022/08/31 06:31:59;;;;;;;;;;;;;;;15.81;100.00;100265.50;5062183;28;20291;-79
2022/08/31 06:34:27;;;;;;;;;;;;;;;16.03;100.00;100263.91;5062113;28;20379;-78
2022/08/31 06:37:04;;;;;;;;;;;;;;;16.01;100.00;100263.53;5080367;28;19924;-80
2022/08/31 06:39:42;;;;;;;;;;;;;;;16.27;100.00;100269.50;5062036;28;19997;-80
2022/08/31 06:42:25;;;;;;;;;;;;;;;16.06;100.00;100260.22;5061462;28;19924;-80
2022/08/31 06:44:52;;;;;;;;;;;;;;;16.33;100.00;100257.25;5078643;28;19924;-80
2022/08/31 06:47:22;;;;;;;;;;;;;;;16.56;100.00;100259.22;5097165;28;19932;-80
2022/08/31 06:49:51;;;;;;;;;;;;;;;16.68;100.00;100255.72;5045754;28;20317;-80
2022/08/31 06:52:20;;;;;;;;;;;;;;;16.46;100.00;100257.44;5062224;28;20014;-80
2022/08/31 06:55:02;;;;;;;;;;;;;;;16.37;100.00;100257.19;5064060;28;20349;-80
2022/08/31 06:57:52;;;;;;;;;;;;;;;16.43;100.00;100261.09;4999387;28;19932;-80
2022/08/31 07:01:12;;;;;;;;;;;;;;;16.60;100.00;100254.31;4967033;28;19961;-77
2022/08/31 07:03:56;;;;;;;;;;;;;;;16.65;100.00;100265.88;4974780;28;20016;-77
2022/08/31 07:06:26;;;;;;;;;;;;;;;16.36;100.00;100262.03;4974789;28;20356;-77
2022/08/31 07:08:56;;;;;;;;;;;;;;;16.42;100.00;100271.56;4974539;28;19977;-76
2022/08/31 07:11:31;;;;;;;;;;;;;;;16.76;100.00;100262.81;4958173;28;19926;-77
2022/08/31 07:13:58;;;;;;;;;;;;;;;16.78;100.00;100274.47;4958641;28;19991;-77
2022/08/31 07:16:27;;;;;;;;;;;;;;;16.64;100.00;100283.25;4957661;28;19985;-78
2022/08/31 07:18:57;;;;;;;;;;;;;;;16.79;100.00;100273.25;4974546;28;20421;-79
2022/08/31 07:21:29;;;;;;;;;;;;;;;16.94;100.00;100272.50;4974254;28;19933;-79
2022/08/31 07:23:58;;;;;;;;;;;;;;;17.07;100.00;100272.63;4974583;28;20491;-79
2022/08/31 07:26:30;;;;;;;;;;;;;;;17.30;100.00;100275.28;4974273;28;19930;-79
2022/08/31 07:29:05;;;;;;;;;;;;;;;17.55;100.00;100264.19;4958243;28;20377;-79
2022/08/31 07:31:41;;;;;;;;;;;;;;;17.66;100.00;100271.16;4958166;28;19930;-79
2022/08/31 07:34:09;;;;;;;;;;;;;;;17.62;100.00;100261.19;4971999;28;20018;-79
2022/08/31 07:42:27;;;;;;;;;;;;;;;18.04;100.00;100265.72;5060540;28;20275;-79
2022/08/31 07:44:56;;;;;;;;;;;;;;;18.22;100.00;100268.84;5077184;28;19928;-79
2022/08/31 07:47:25;;;;;;;;;;;;;;;18.78;100.00;100270.06;5060789;28;20351;-79
2022/08/31 07:49:54;;;;;;;;;;;;;;;19.05;100.00;100259.09;5077230;28;19942;-79
2022/08/31 07:52:47;;;;;;;;;;;;;;;18.89;100.00;100262.03;5008466;28;19936;-77
2022/08/31 07:55:35;;;;;;;;;;;;;;;18.61;100.00;100251.59;5011507;28;19933;-80
2022/08/31 07:58:11;;;;;;;;;;;;;;;19.60;100.00;100257.72;5010065;28;19929;-81
2022/08/31 08:00:42;;;;;;;;;;;;;;;19.58;100.00;100251.75;5024970;28;19929;-80
2022/08/31 08:03:11;;;;;;;;;;;;;;;20.24;100.00;100256.31;5024767;28;19933;-80
2022/08/31 08:05:59;;;;;;;;;;;;;;;20.99;100.00;100248.16;4992234;28;20024;-79
2022/08/31 08:08:34;;;;;;;;;;;;;;;21.98;100.00;100244.06;4990264;28;20749;-80
2022/08/31 08:11:16;;;;;;;;;;;;;;;22.27;100.00;100228.09;4988582;28;19940;-79
2022/08/31 08:13:57;;;;;;;;;;;;;;;22.76;100.00;100225.84;5005549;28;19926;-81
2022/08/31 08:16:57;;;;;;;;;;;;;;;23.07;100.00;100229.22;4961051;28;20697;-81
2022/08/31 08:19:41;;;;;;;;;;;;;;;21.95;100.00;100237.25;4988651;28;20128;-79
2022/08/31 08:22:08;;;;;;;;;;;;;;;20.64;100.00;100243.06;4988203;28;19926;-80
2022/08/31 08:25:08;;;;;;;;;;;;;;;20.29;100.00;100244.38;4992857;28;19933;-80
2022/08/31 08:27:43;;;;;;;;;;;;;;;20.01;100.00;100251.06;4973877;28;19965;-79
2022/08/31 08:30:24;;;;;;;;;;;;;;;20.09;100.00;100258.06;5040591;28;19925;-79
2022/08/31 08:32:51;;;;;;;;;;;;;;;20.05;100.00;100258.19;5053359;28;19930;-81
2022/08/31 08:35:19;;;;;;;;;;;;;;;19.87;100.00;100255.19;5052692;28;19932;-81
2022/08/31 08:37:46;;;;;;;;;;;;;;;19.39;100.00;100262.06;5035270;28;19925;-78
2022/08/31 08:40:41;;;;;;;;;;;;;;;19.05;100.00;100267.59;5035502;28;20058;-81
2022/08/31 08:43:11;;;;;;;;;;;;;;;19.52;100.00;100276.25;5036470;28;19931;-82
2022/08/31 08:45:39;;;;;;;;;;;;;;;20.39;100.00;100265.91;5038176;28;19925;-82
2022/08/31 08:48:08;;;;;;;;;;;;;;;21.60;100.00;100247.28;5039643;28;19924;-81
2022/08/31 08:50:35;;;;;;;;;;;;;;;21.55;100.00;100256.44;5039831;28;19924;-80
2022/08/31 08:53:03;;;;;;;;;;;;;;;21.12;100.00;100259.44;5022657;28;19931;-78
2022/08/31 08:55:34;;;;;;;;;;;;;;;21.45;100.00;100246.31;5055964;28;19935;-76
2022/08/31 08:58:04;;;;;;;;;;;;;;;21.91;100.00;100250.88;5022548;28;19925;-77
2022/08/31 09:00:33;;;;;;;;;;;;;;;21.91;100.00;100256.56;5039316;28;20367;-77
2022/08/31 09:03:03;;;;;;;;;;;;;;;21.73;100.00;100244.31;5040009;28;20379;-77
2022/08/31 09:06:27;;;;;;;;;;;;;;;21.48;100.00;100239.66;5011598;28;19932;-78
2022/08/31 09:09:16;;;;;;;;;;;;;;;20.84;100.00;100246.34;4978746;28;20379;-78
2022/08/31 09:12:10;;;;;;;;;;;;;;;20.95;100.00;100241.84;4996155;28;19925;-78
2022/08/31 09:15:00;;;;;;;;;;;;;;;21.52;100.00;100234.66;4979035;28;20028;-78
2022/08/31 09:17:27;;;;;;;;;;;;;;;21.93;100.00;100242.63;4995304;28;19959;-78
2022/08/31 09:19:59;;;;;;;;;;;;;;;21.40;100.00;100238.41;4978702;28;19940;-77
2022/08/31 09:22:27;;;;;;;;;;;;;;;21.26;100.00;100239.75;5011380;28;20000;-78
2022/08/31 09:24:58;;;;;;;;;;;;;;;21.78;100.00;100229.50;4978954;28;20285;-78
2022/08/31 09:27:46;;;;;;;;;;;;;;;21.98;100.00;100238.34;4995330;28;19937;-78
2022/08/31 09:30:16;;;;;;;;;;;;;;;21.35;100.00;100236.97;4995242;28;20432;-78
2022/08/31 09:32:54;;;;;;;;;;;;;;;21.29;100.00;100236.00;4995509;28;20056;-78
2022/08/31 09:35:24;;;;;;;;;;;;;;;21.65;100.00;100231.66;5011620;28;19934;-78
2022/08/31 09:38:00;;;;;;;;;;;;;;;21.95;100.00;100228.72;5047110;28;20539;-79
2022/08/31 09:40:35;;;;;;;;;;;;;;;22.30;100.00;100218.59;5055060;28;19932;-77
2022/08/31 09:43:05;;;;;;;;;;;;;;;22.65;100.00;100216.19;5073332;28;20015;-78
2022/08/31 09:45:35;;;;;;;;;;;;;;;21.96;100.00;100230.28;5073200;28;19925;-77
2022/08/31 09:48:06;;;;;;;;;;;;;;;21.18;100.00;100226.31;5039072;28;20283;-77
2022/08/31 09:50:44;;;;;;;;;;;;;;;20.98;100.00;100229.53;5056699;28;19935;-77
2022/08/31 09:56:21;;;;;;;;;;;;;;;22.11;100.00;100217.03;5059550;28;20003;-77
2022/08/31 09:58:53;;;;;;;;;;;;;;;22.23;100.00;100216.09;5042829;28;20389;-77
2022/08/31 10:01:23;;;;;;;;;;;;;;;21.59;100.00;100216.47;5059216;28;19977;-77
2022/08/31 10:04:07;;;;;;;;;;;;;;;21.49;100.00;100226.25;5042307;28;20355;-77
2022/08/31 10:06:43;;;;;;;;;;;;;;;21.51;100.00;100218.81;5059192;28;19924;-77
2022/08/31 10:09:20;;;;;;;;;;;;;;;21.69;100.00;100216.00;5043042;28;19960;-77
2022/08/31 10:11:49;;;;;;;;;;;;;;;21.75;100.00;100211.31;5059145;28;20326;-77
2022/08/31 10:14:16;;;;;;;;;;;;;;;21.50;100.00;100211.56;5076926;28;19931;-77
2022/08/31 10:16:48;;;;;;;;;;;;;;;21.31;100.00;100212.78;5026176;28;19967;-77
2022/08/31 10:19:15;;;;;;;;;;;;;;;20.93;100.00;100215.13;5042396;28;19924;-77
2022/08/31 10:21:52;;;;;;;;;;;;;;;20.91;100.00;100217.63;5042214;28;20011;-77
2022/08/31 10:24:27;;;;;;;;;;;;;;;20.86;100.00;100215.41;5059030;28;19936;-77
2022/08/31 10:27:13;;;;;;;;;;;;;;;20.63;100.00;100213.09;5058955;28;19928;-77
2022/08/31 10:29:44;;;;;;;;;;;;;;;20.90;100.00;100210.38;5058836;28;19928;-75
2022/08/31 10:32:18;;;;;;;;;;;;;;;20.07;100.00;100212.34;5035869;28;19986;-76
2022/08/31 10:35:06;;;;;;;;;;;;;;;20.12;100.00;100214.56;5072210;28;19931;-75
2022/08/31 10:37:42;;;;;;;;;;;;;;;20.19;100.00;100208.69;5071080;28;19924;-75
2022/08/31 10:40:14;;;;;;;;;;;;;;;21.26;100.00;100199.19;5092296;28;20294;-79
2022/08/31 10:42:45;;;;;;;;;;;;;;;21.88;100.00;100194.91;5074475;28;19931;-79
2022/08/31 10:45:22;;;;;;;;;;;;;;;21.72;100.00;100186.63;5073550;28;20261;-77
2022/08/31 10:47:51;;;;;;;;;;;;;;;22.20;100.00;100188.56;5091306;28;20144;-77
2022/08/31 10:50:34;;;;;;;;;;;;;;;21.71;100.00;100182.22;5090159;28;20383;-78
2022/08/31 10:53:07;;;;;;;;;;;;;;;22.10;100.00;100178.44;5072833;28;20406;-78
2022/08/31 10:55:50;;;;;;;;;;;;;;;21.89;100.00;100173.72;5072340;28;19981;-77
2022/08/31 10:58:32;;;;;;;;;;;;;;;21.78;100.00;100172.63;5055974;28;20358;-78
2022/08/31 11:01:19;;;;;;;;;;;;;;;21.77;100.00;100171.81;5072635;28;19924;-78
2022/08/31 11:03:49;;;;;;;;;;;;;;;21.80;100.00;100170.88;5031563;28;19924;-78
2022/08/31 11:06:16;;;;;;;;;;;;;;;22.32;100.00;100164.84;5056074;28;19924;-79
2022/08/31 11:08:54;;;;;;;;;;;;;;;22.38;100.00;100170.66;5059248;28;19924;-78
2022/08/31 11:11:23;;;;;;;;;;;;;;;21.80;100.00;100168.03;5076015;28;19970;-78
2022/08/31 11:13:50;;;;;;;;;;;;;;;21.74;100.00;100155.69;5076999;28;20007;-78
2022/08/31 11:16:26;;;;;;;;;;;;;;;22.28;100.00;100154.88;5060418;28;19924;-79
2022/08/31 11:19:12;;;;;;;;;;;;;;;22.49;100.00;100145.34;5076720;28;19924;-78
2022/08/31 11:21:43;;;;;;;;;;;;;;;21.53;100.00;100148.06;5043879;28;19963;-78
2022/08/31 11:24:37;;;;;;;;;;;;;;;21.59;100.00;100139.69;5076920;28;19931;-78
2022/08/31 11:27:22;;;;;;;;;;;;;;;21.38;100.00;100147.91;5073077;28;19924;-78
2022/08/31 11:30:12;;;;;;;;;;;;;;;22.23;100.00;100153.47;5076456;28;19924;-78
2022/08/31 11:32:44;;;;;;;;;;;;;;;22.71;100.00;100154.47;5080940;28;20409;-78
2022/08/31 11:35:13;;;;;;;;;;;;;;;22.27;100.00;100154.06;5076565;28;19924;-78
2022/08/31 11:37:45;;;;;;;;;;;;;;;22.10;100.00;100149.97;5076652;28;20447;-78
2022/08/31 11:40:13;;;;;;;;;;;;;;;21.96;100.00;100156.31;5060158;28;19924;-78
2022/08/31 11:42:41;;;;;;;;;;;;;;;22.09;100.00;100159.00;5060180;28;19924;-79
2022/08/31 11:45:25;;;;;;;;;;;;;;;21.68;100.00;100146.19;5094470;28;19924;-78
2022/08/31 11:47:53;;;;;;;;;;;;;;;21.44;100.00;100148.06;5076310;28;19993;-78
2022/08/31 11:50:20;;;;;;;;;;;;;;;21.40;100.00;100139.66;5043321;28;19924;-78
2022/08/31 11:52:52;;;;;;;;;;;;;;;21.25;100.00;100140.72;5076534;28;19928;-78
2022/08/31 11:55:19;;;;;;;;;;;;;;;21.19;100.00;100128.41;5026925;28;20466;-78
2022/08/31 11:58:10;;;;;;;;;;;;;;;21.34;100.00;100120.88;5059714;28;19928;-78
2022/08/31 12:00:45;;;;;;;;;;;;;;;21.39;100.00;100123.09;5076362;28;19924;-78
2022/08/31 12:03:31;;;;;;;;;;;;;;;21.53;100.00;100133.03;5076080;28;19985;-78
2022/08/31 12:05:58;;;;;;;;;;;;;;;22.28;100.00;100115.78;5094195;28;19924;-79
2022/08/31 12:08:50;;;;;;;;;;;;;;;22.03;100.00;100118.22;5094099;28;19924;-79
2022/08/31 12:11:25;;;;;;;;;;;;;;;21.64;100.00;100119.16;5094039;28;19924;-78
2022/08/31 12:14:18;;;;;;;;;;;;;;;21.53;100.00;100127.34;5071708;28;20017;-78
2022/08/31 12:17:08;;;;;;;;;;;;;;;21.56;100.00;100117.88;5050889;28;19925;-78
2022/08/31 12:20:05;;;;;;;;;;;;;;;21.56;100.00;100109.34;5049701;28;20357;-79
2022/08/31 12:25:40;;;;;;;;;;;;;;;22.07;100.00;100105.41;5068661;28;20140;-79
2022/08/31 12:28:21;;;;;;;;;;;;;;;21.81;100.00;100103.38;5033514;28;20476;-79
2022/08/31 12:30:50;;;;;;;;;;;;;;;21.79;100.00;100112.41;5066957;28;19931;-79
2022/08/31 12:33:19;;;;;;;;;;;;;;;22.05;100.00;100104.31;5069095;28;19932;-78
2022/08/31 12:35:51;;;;;;;;;;;;;;;21.52;100.00;100109.53;5052367;28;19924;-78
2022/08/31 12:38:19;;;;;;;;;;;;;;;21.62;100.00;100098.94;5071519;28;19928;-78
2022/08/31 12:40:48;;;;;;;;;;;;;;;21.56;100.00;100101.63;5038672;28;19925;-78
2022/08/31 12:43:18;;;;;;;;;;;;;;;21.41;100.00;100092.13;5072892;28;19925;-78
2022/08/31 12:45:51;;;;;;;;;;;;;;;21.39;100.00;100094.66;5071666;28;19924;-78
2022/08/31 12:48:39;;;;;;;;;;;;;;;21.27;100.00;100089.91;5039365;28;19924;-78
2022/08/31 12:51:09;;;;;;;;;;;;;;;21.87;100.00;100084.41;5055352;28;20357;-78
2022/08/31 12:53:36;;;;;;;;;;;;;;;22.02;100.00;100088.19;5073116;28;19978;-78
2022/08/31 12:56:16;;;;;;;;;;;;;;;21.61;100.00;100064.03;5038905;28;19928;-78
2022/08/31 12:58:59;;;;;;;;;;;;;;;21.88;100.00;100075.41;5055355;28;19928;-78
2022/08/31 13:01:26;;;;;;;;;;;;;;;22.78;100.00;100075.13;5054833;28;19931;-78
2022/08/31 13:03:55;;;;;;;;;;;;;;;22.62;100.00;100066.19;5055140;28;19928;-78
2022/08/31 13:06:33;;;;;;;;;;;;;;;22.27;100.00;100068.66;5072927;28;19925;-78
2022/08/31 13:09:00;;;;;;;;;;;;;;;21.80;100.00;100071.28;5072951;28;19924;-78
2022/08/31 13:11:27;;;;;;;;;;;;;;;21.93;100.00;100079.66;5072897;28;19925;-78